Time;durP1;ratioP1;P1;durP2;ratioP2;P2;SDS_P1;SDS_P2;PMS_P1;PMS_P2;Temp;Humidity;BMP_temperature;BMP_pressure;BME280_temperature;BME280_humidity;BME280_pressure;Samples;Min_cycle;Max_cycle;Signal;HPM_P1;HPM_P2
2023/01/01 00:00:47;;;;;;;;;;;2.40;87.40;;;1.01;81.22;97495.28;4974198;28;19933;-81
2023/01/01 00:03:16;;;;;;;;;;;2.30;87.50;;;1.01;81.49;97508.75;4991418;28;19922;-81
2023/01/01 00:05:44;;;;;;;;;;;2.40;87.50;;;1.01;81.55;97516.84;4975040;28;19944;-81
2023/01/01 00:08:11;;;;;;;;;;;2.30;87.40;;;1.01;81.27;97515.00;4974977;28;19922;-81
2023/01/01 00:10:39;;;;;;;;;;;2.40;87.40;;;1.01;81.51;97519.53;4974876;28;19930;-81
2023/01/01 00:13:07;;;;;;;;;;;2.30;87.40;;;1.01;81.82;97522.25;4991164;28;19922;-81
2023/01/01 00:15:36;;;;;;;;;;;2.40;87.50;;;1.01;81.76;97512.31;4991743;28;19928;-81
2023/01/01 00:18:05;;;;;;;;;;;2.40;87.50;;;1.01;81.55;97508.75;4974632;28;19922;-80
2023/01/01 00:20:32;;;;;;;;;;;2.40;87.40;;;1.01;81.14;97500.66;4974766;28;19922;-81
2023/01/01 00:23:00;;;;;;;;;;;2.30;87.40;;;1.01;81.47;97498.81;4974608;28;19922;-81
2023/01/01 00:25:29;;;;;;;;;;;2.40;87.40;;;1.01;81.62;97490.72;4957953;28;20239;-81
2023/01/01 00:27:57;;;;;;;;;;;2.40;87.30;;;1.01;81.26;97493.44;4974529;28;19993;-80
2023/01/01 00:30:25;;;;;;;;;;;2.40;87.40;;;1.00;81.57;97505.22;4991989;28;19922;-81
2023/01/01 00:32:54;;;;;;;;;;;2.40;87.40;;;1.02;81.47;97534.72;4974632;28;19928;-81
2023/01/01 00:35:22;;;;;;;;;;;2.40;87.30;;;1.01;81.19;97541.97;4991668;28;19922;-81
2023/01/01 00:37:50;;;;;;;;;;;2.40;87.40;;;1.02;81.52;97529.31;4974990;28;20113;-81
2023/01/01 00:40:18;;;;;;;;;;;2.40;87.40;;;1.03;81.33;97536.38;4974368;28;19922;-80
2023/01/01 00:42:46;;;;;;;;;;;2.40;87.40;;;1.02;81.25;97530.16;4991965;28;19926;-81
2023/01/01 00:45:15;;;;;;;;;;;2.40;87.40;;;1.02;81.30;97534.72;4974159;28;19936;-80
2023/01/01 00:47:43;;;;;;;;;;;2.40;87.40;;;1.02;81.72;97534.72;4958691;28;20214;-81
2023/01/01 00:50:12;;;;;;;;;;;2.40;87.40;;;1.02;81.64;97518.53;4991681;28;19922;-81
2023/01/01 00:52:40;;;;;;;;;;;2.40;87.40;;;1.02;81.29;97522.09;4958637;28;19944;-80
2023/01/01 00:55:09;;;;;;;;;;;2.40;87.30;;;1.02;81.20;97511.28;4974074;28;19928;-81
2023/01/01 00:57:37;;;;;;;;;;;2.40;87.40;;;1.02;81.73;97513.13;4974343;28;19922;-81
2023/01/01 01:00:06;;;;;;;;;;;2.40;87.40;;;1.02;81.69;97502.34;4990380;28;19922;-81
2023/01/01 01:02:34;;;;;;;;;;;2.40;87.40;;;1.01;81.47;97515.00;4956788;28;19991;-81
2023/01/01 01:05:03;;;;;;;;;;;2.40;87.40;;;1.03;81.50;97514.81;4957651;28;19922;-81
2023/01/01 01:07:35;;;;;;;;;;;2.40;87.40;;;1.01;81.26;97516.84;4974409;28;20253;-81
2023/01/01 01:10:03;;;;;;;;;;;2.40;87.40;;;1.02;81.45;97514.00;4958149;28;19922;-81
2023/01/01 01:12:31;;;;;;;;;;;2.40;87.40;;;1.03;81.33;97512.13;4974207;28;19929;-81
2023/01/01 01:14:59;;;;;;;;;;;2.40;87.40;;;1.01;81.34;97511.44;4963434;28;19930;-81
2023/01/01 01:17:28;;;;;;;;;;;2.40;87.50;;;1.02;81.80;97507.75;4977528;28;19927;-81
2023/01/01 01:19:56;;;;;;;;;;;2.40;87.40;;;1.01;81.60;97512.31;4993311;28;19921;-81
2023/01/01 01:22:24;;;;;;;;;;;2.40;87.50;;;1.01;81.72;97515.00;4993492;28;19929;-81
2023/01/01 01:24:54;;;;;;;;;;;2.40;87.40;;;1.01;81.80;97516.84;5001652;28;19928;-81
2023/01/01 01:27:22;;;;;;;;;;;2.40;87.50;;;1.03;81.54;97528.28;4993518;28;19921;-81
2023/01/01 01:29:49;;;;;;;;;;;2.40;87.60;;;1.00;81.34;97521.41;4993367;28;20436;-81
2023/01/01 01:32:17;;;;;;;;;;;2.40;87.50;;;1.01;81.67;97523.09;4977425;28;19928;-81
2023/01/01 01:34:45;;;;;;;;;;;2.40;87.50;;;1.03;81.69;97528.28;5009146;28;19921;-81
2023/01/01 01:37:13;;;;;;;;;;;2.40;87.60;;;1.02;81.59;97537.41;5009763;28;19936;-81
2023/01/01 01:39:41;;;;;;;;;;;2.40;87.60;;;1.02;81.76;97532.00;4980516;28;20117;-81
2023/01/01 01:42:12;;;;;;;;;;;2.30;87.50;;;1.03;81.35;97533.69;4996881;28;19922;-81
2023/01/01 01:44:55;;;;;;;;;;;2.40;87.60;;;1.02;81.56;97518.53;4979819;28;19928;-81
2023/01/01 01:47:26;;;;;;;;;;;2.40;87.50;;;1.03;81.64;97541.78;4973903;28;19929;-81
2023/01/01 01:49:55;;;;;;;;;;;2.40;87.50;;;1.02;81.49;97540.09;4974035;28;19922;-81
2023/01/01 01:52:23;;;;;;;;;;;2.40;87.50;;;1.02;81.32;97527.47;4941840;28;19929;-81
2023/01/01 01:54:51;;;;;;;;;;;2.40;87.60;;;1.02;81.36;97532.88;4957162;28;19929;-81
2023/01/01 01:57:20;;;;;;;;;;;2.40;87.50;;;1.02;81.34;97530.16;4974006;28;19922;-81
2023/01/01 01:59:49;;;;;;;;;;;2.40;87.50;;;1.02;81.32;97519.38;4957447;28;20116;-81
2023/01/01 02:02:20;;;;;;;;;;;2.40;87.50;;;1.02;81.85;97518.53;4973589;28;19928;-81
2023/01/01 02:04:48;;;;;;;;;;;2.40;87.50;;;1.03;81.73;97520.22;4957318;28;19926;-81
2023/01/01 02:07:16;;;;;;;;;;;2.40;87.50;;;1.02;81.87;97523.91;4957257;28;20124;-81
2023/01/01 02:09:44;;;;;;;;;;;2.40;87.40;;;1.02;81.38;97530.16;4957806;28;20114;-81
2023/01/01 02:12:12;;;;;;;;;;;2.40;87.50;;;1.02;81.70;97527.47;4974583;28;20120;-81
2023/01/01 02:14:42;;;;;;;;;;;2.40;87.50;;;1.02;81.46;97521.22;4957011;28;20117;-81
2023/01/01 02:17:11;;;;;;;;;;;2.40;87.50;;;1.02;81.76;97519.38;4974783;28;19922;-81
2023/01/01 02:19:44;;;;;;;;;;;2.40;87.50;;;1.02;81.57;97519.38;4956930;28;19977;-81
2023/01/01 02:22:16;;;;;;;;;;;2.40;87.60;;;1.02;81.75;97526.63;4957519;28;20228;-81
2023/01/01 02:24:49;;;;;;;;;;;2.40;87.60;;;1.03;81.62;97531.00;4956944;28;19922;-81
2023/01/01 02:27:20;;;;;;;;;;;2.40;87.60;;;1.03;81.64;97539.09;4973467;28;19923;-81
2023/01/01 02:29:51;;;;;;;;;;;2.40;87.60;;;1.03;81.55;97536.38;4957028;28;19922;-81
2023/01/01 02:32:20;;;;;;;;;;;2.40;87.60;;;1.03;81.77;97533.69;4973050;28;19922;-81
2023/01/01 02:34:51;;;;;;;;;;;2.40;87.60;;;1.02;81.49;97529.31;4956542;28;19926;-81
2023/01/01 02:37:19;;;;;;;;;;;2.40;87.60;;;1.03;81.67;97547.19;4976102;28;20118;-81
2023/01/01 02:39:50;;;;;;;;;;;2.40;87.60;;;1.03;81.93;97550.69;4992477;28;20239;-81
2023/01/01 02:42:18;;;;;;;;;;;2.40;87.60;;;1.02;81.47;97551.75;4976386;28;19944;-81
2023/01/01 02:44:47;;;;;;;;;;;2.40;88.40;;;1.02;81.66;97550.88;4959789;28;19922;-81
2023/01/01 02:47:17;;;;;;;;;;;2.40;87.60;;;1.03;81.71;97541.78;5004420;28;19921;-81
2023/01/01 02:49:50;;;;;;;;;;;2.40;87.60;;;1.04;81.83;97548.84;4995588;28;19926;-81
2023/01/01 02:52:28;;;;;;;;;;;2.40;87.50;;;1.04;81.58;97548.84;5012969;28;19928;-81
2023/01/01 02:54:59;;;;;;;;;;;2.40;87.60;;;1.04;81.41;97548.84;4978915;28;19936;-81
2023/01/01 02:57:31;;;;;;;;;;;2.40;87.50;;;1.05;81.47;97558.63;4995688;28;19921;-81
2023/01/01 03:00:23;;;;;;;;;;;2.40;87.50;;;1.03;81.61;97548.00;4978988;28;19928;-81
2023/01/01 03:03:00;;;;;;;;;;;2.40;87.50;;;1.04;81.86;97548.84;4978898;28;19985;-81
2023/01/01 03:05:31;;;;;;;;;;;2.40;87.60;;;1.04;81.75;97549.69;4977851;28;19944;-81
2023/01/01 03:08:04;;;;;;;;;;;2.40;87.50;;;1.03;81.60;97553.41;4975273;28;19952;-81
2023/01/01 03:10:36;;;;;;;;;;;2.40;87.60;;;1.04;81.59;97548.84;4975567;28;19929;-81
2023/01/01 03:13:07;;;;;;;;;;;2.40;87.50;;;1.03;81.41;97544.47;4975977;28;19990;-81
2023/01/01 03:15:37;;;;;;;;;;;2.40;87.60;;;1.05;81.43;97553.25;4975206;28;19921;-81
2023/01/01 03:18:08;;;;;;;;;;;2.40;87.60;;;1.04;81.74;97552.38;4972348;28;19922;-81
2023/01/01 03:20:38;;;;;;;;;;;2.40;87.50;;;1.04;81.36;97554.25;4956448;28;20206;-81
2023/01/01 03:23:07;;;;;;;;;;;2.40;87.50;;;1.05;81.45;97550.53;4989631;28;19921;-81
2023/01/01 03:25:37;;;;;;;;;;;2.40;87.50;;;1.04;81.48;97559.66;4978480;28;19921;-81
2023/01/01 03:28:06;;;;;;;;;;;2.40;87.60;;;1.05;81.68;97558.63;4978596;28;19921;-81
2023/01/01 03:30:34;;;;;;;;;;;2.40;87.50;;;1.05;81.58;97561.31;4978969;28;19922;-81
2023/01/01 03:33:04;;;;;;;;;;;2.40;87.60;;;1.04;81.34;97554.25;4979298;28;19928;-81
2023/01/01 03:35:37;;;;;;;;;;;2.40;87.50;;;1.05;81.57;97553.25;4991344;28;19922;-81
2023/01/01 03:38:06;;;;;;;;;;;2.40;87.50;;;1.06;81.65;97563.00;4987253;28;19922;-81
2023/01/01 03:40:34;;;;;;;;;;;2.40;87.40;;;1.06;81.58;97565.72;4978650;28;19921;-81
2023/01/01 03:43:05;;;;;;;;;;;2.40;87.50;;;1.05;81.64;97566.72;4967622;28;19921;-81
2023/01/01 03:45:35;;;;;;;;;;;2.40;87.40;;;1.05;81.36;97562.16;4991257;28;20132;-81
2023/01/01 03:48:04;;;;;;;;;;;2.40;87.50;;;1.06;81.64;97568.41;4992652;28;19922;-81
2023/01/01 03:50:38;;;;;;;;;;;2.40;87.60;;;1.05;81.67;97564.84;4975540;28;19928;-81
2023/01/01 03:53:08;;;;;;;;;;;2.40;87.60;;;1.06;81.49;97568.41;4974869;28;19921;-81
2023/01/01 03:55:37;;;;;;;;;;;2.40;87.50;;;1.05;81.71;97567.53;4974929;28;19922;-81
2023/01/01 03:58:09;;;;;;;;;;;2.40;87.60;;;1.04;81.41;97571.25;4958906;28;19922;-81
2023/01/01 04:00:39;;;;;;;;;;;2.40;87.50;;;1.05;81.64;97578.34;4974513;28;19928;-81
2023/01/01 04:03:09;;;;;;;;;;;2.40;87.50;;;1.06;81.42;97573.81;4959221;28;19922;-81
2023/01/01 04:05:40;;;;;;;;;;;2.40;87.50;;;1.08;81.21;97579.88;4974711;28;19928;-81
2023/01/01 04:08:08;;;;;;;;;;;2.40;87.50;;;1.06;81.66;97568.41;4975049;28;19922;-81
2023/01/01 04:10:38;;;;;;;;;;;2.40;87.50;;;1.07;81.82;97575.47;4974729;28;19928;-81
2023/01/01 04:13:06;;;;;;;;;;;2.40;87.50;;;1.06;81.59;97582.72;4982079;28;19928;-81
2023/01/01 04:15:34;;;;;;;;;;;2.40;87.40;;;1.07;81.56;97575.47;4977872;28;19936;-81
2023/01/01 04:18:02;;;;;;;;;;;2.40;87.40;;;1.08;81.82;97577.16;5011709;28;19921;-81
2023/01/01 04:20:30;;;;;;;;;;;2.40;87.40;;;1.06;81.59;97584.59;4994374;28;19922;-81
2023/01/01 04:23:00;;;;;;;;;;;2.40;87.40;;;1.05;81.32;97578.34;5002151;28;19929;-81
2023/01/01 04:25:28;;;;;;;;;;;2.40;87.50;;;1.06;81.41;97582.72;4954914;28;20206;-81
2023/01/01 04:27:58;;;;;;;;;;;2.40;87.40;;;1.07;81.65;97583.56;4974342;28;19944;-81
2023/01/01 04:30:27;;;;;;;;;;;2.40;87.50;;;1.07;81.76;97588.97;4974665;28;19922;-82
2023/01/01 04:32:54;;;;;;;;;;;2.40;87.50;;;1.07;81.31;97592.50;4977505;28;19922;-81
2023/01/01 04:35:22;;;;;;;;;;;2.40;87.50;;;1.07;81.53;97589.78;4977604;28;20212;-82
2023/01/01 04:37:50;;;;;;;;;;;2.40;87.50;;;1.07;81.42;97588.97;4993863;28;19929;-81
2023/01/01 04:40:20;;;;;;;;;;;2.40;87.50;;;1.08;81.94;97601.44;5010343;28;19921;-81
2023/01/01 04:42:47;;;;;;;;;;;2.40;87.50;;;1.07;81.80;97602.44;4993890;28;20102;-81
2023/01/01 04:45:16;;;;;;;;;;;2.40;87.40;;;1.08;81.57;97604.13;4993829;28;20213;-81
2023/01/01 04:47:44;;;;;;;;;;;2.40;87.40;;;1.08;81.32;97606.84;4993763;28;20133;-81
2023/01/01 04:50:12;;;;;;;;;;;2.40;87.50;;;1.08;81.89;97614.91;4977753;28;19928;-81
2023/01/01 04:52:40;;;;;;;;;;;2.40;87.50;;;1.08;81.79;97606.84;4993765;28;20221;-82
2023/01/01 04:55:09;;;;;;;;;;;2.40;87.40;;;1.08;81.63;97604.13;4977150;28;19928;-81
2023/01/01 04:57:38;;;;;;;;;;;2.40;87.50;;;1.07;81.51;97600.56;4977704;28;19932;-81
2023/01/01 05:00:07;;;;;;;;;;;2.40;87.40;;;1.09;81.36;97602.25;5010293;28;20210;-81
2023/01/01 05:02:35;;;;;;;;;;;2.40;87.40;;;1.09;81.52;97603.13;4993672;28;19927;-82
2023/01/01 05:05:03;;;;;;;;;;;2.40;87.50;;;1.09;81.59;97605.81;4992906;28;19921;-81
2023/01/01 05:07:33;;;;;;;;;;;2.40;87.50;;;1.07;81.34;97614.06;5010986;28;20213;-81
2023/01/01 05:10:01;;;;;;;;;;;2.40;87.40;;;1.08;81.33;97614.91;4994419;28;19929;-81
2023/01/01 05:12:29;;;;;;;;;;;2.40;87.40;;;1.09;81.47;97615.75;4958387;28;19922;-81
2023/01/01 05:14:59;;;;;;;;;;;2.40;87.50;;;1.09;81.63;97615.75;4974945;28;19937;-81
2023/01/01 05:17:27;;;;;;;;;;;2.40;87.50;;;1.09;81.39;97615.75;4980979;28;19928;-81
2023/01/01 05:19:54;;;;;;;;;;;2.40;87.50;;;1.10;81.82;97617.44;4996775;28;19921;-81
2023/01/01 05:22:22;;;;;;;;;;;2.40;87.40;;;1.09;81.77;97616.59;4997114;28;20213;-81
2023/01/01 05:24:50;;;;;;;;;;;2.40;87.40;;;1.09;81.19;97622.00;4996458;28;20206;-81
2023/01/01 05:27:18;;;;;;;;;;;2.40;87.40;;;1.09;81.51;97622.00;4980497;28;19921;-81
2023/01/01 05:29:46;;;;;;;;;;;2.40;87.50;;;1.09;81.33;97624.69;4980517;28;19921;-81
2023/01/01 05:32:15;;;;;;;;;;;2.40;87.50;;;1.10;81.54;97630.91;4980685;28;19921;-81
2023/01/01 05:34:43;;;;;;;;;;;2.40;87.50;;;1.08;81.11;97631.09;5012580;28;19925;-81
2023/01/01 05:37:11;;;;;;;;;;;2.40;87.50;;;1.09;81.36;97638.19;4980686;28;19922;-81
2023/01/01 05:39:39;;;;;;;;;;;2.40;87.40;;;1.09;81.23;97643.56;4996703;28;20120;-81
2023/01/01 05:42:07;;;;;;;;;;;2.40;87.40;;;1.09;81.60;97638.19;5013119;28;20120;-81
2023/01/01 05:44:36;;;;;;;;;;;2.40;87.40;;;1.10;81.56;97647.94;4980142;28;20117;-81
2023/01/01 05:47:04;;;;;;;;;;;2.40;87.40;;;1.10;81.79;97655.19;4979962;28;19922;-81
2023/01/01 05:49:35;;;;;;;;;;;2.40;87.40;;;1.09;81.79;97648.97;4980043;28;19922;-81
2023/01/01 05:52:03;;;;;;;;;;;2.40;87.40;;;1.10;81.93;97650.63;4996493;28;19921;-81
2023/01/01 05:54:32;;;;;;;;;;;2.40;87.40;;;1.10;81.35;97649.78;5012563;28;20208;-82
2023/01/01 05:57:00;;;;;;;;;;;2.40;87.40;;;1.11;81.34;97651.47;4980155;28;19921;-81
2023/01/01 05:59:28;;;;;;;;;;;2.40;87.40;;;1.10;81.30;97644.41;4980290;28;19922;-81
2023/01/01 06:01:56;;;;;;;;;;;2.40;87.50;;;1.10;81.64;97650.63;4996879;28;20112;-81
2023/01/01 06:04:28;;;;;;;;;;;2.40;87.40;;;1.11;81.87;97651.47;4980259;28;19922;-81
2023/01/01 06:07:05;;;;;;;;;;;2.40;87.40;;;1.11;81.24;97652.31;4996107;28;20209;-81
2023/01/01 06:09:56;;;;;;;;;;;2.40;87.40;;;1.11;81.60;97651.47;5012377;28;19921;-81
2023/01/01 06:12:36;;;;;;;;;;;2.40;87.40;;;1.11;81.68;97662.28;4981083;28;19921;-81
2023/01/01 06:15:05;;;;;;;;;;;2.50;87.60;;;1.11;81.70;97667.66;4995775;28;19928;-81
2023/01/01 06:17:33;;;;;;;;;;;2.40;87.40;;;1.11;81.71;97665.78;4996229;28;19928;-81
2023/01/01 06:20:01;;;;;;;;;;;2.50;87.50;;;1.11;81.63;97668.50;4996266;28;19921;-81
2023/01/01 06:22:31;;;;;;;;;;;2.50;87.50;;;1.12;81.66;97680.13;4995995;28;19927;-81
2023/01/01 06:24:59;;;;;;;;;;;2.50;87.50;;;1.12;81.21;97685.53;4994959;28;19921;-81
2023/01/01 06:27:26;;;;;;;;;;;2.50;87.50;;;1.13;81.26;97682.66;4980057;28;20209;-81
2023/01/01 06:29:56;;;;;;;;;;;2.50;87.50;;;1.13;81.34;97690.75;5013293;28;20224;-81
2023/01/01 06:32:24;;;;;;;;;;;2.50;87.50;;;1.13;81.50;97693.44;5013400;28;19930;-81
2023/01/01 06:34:57;;;;;;;;;;;2.50;87.40;;;1.13;81.90;97696.13;5008943;28;19928;-81
2023/01/01 06:37:54;;;;;;;;;;;2.50;87.40;;;1.13;81.41;97698.00;4976272;28;19930;-81
2023/01/01 06:40:22;;;;;;;;;;;2.50;87.50;;;1.13;81.51;97698.81;4976270;28;19928;-81
2023/01/01 06:42:50;;;;;;;;;;;2.50;87.50;;;1.14;81.12;97700.50;4992743;28;19929;-81
2023/01/01 06:45:18;;;;;;;;;;;2.50;87.50;;;1.14;81.72;97708.59;4959848;28;20116;-81
2023/01/01 06:47:46;;;;;;;;;;;2.50;87.40;;;1.13;81.48;97698.81;4976354;28;20117;-81
2023/01/01 06:50:14;;;;;;;;;;;2.50;87.40;;;1.14;81.29;97705.09;4960159;28;20359;-81
2023/01/01 06:52:42;;;;;;;;;;;2.50;87.50;;;1.14;81.51;97708.59;4992562;28;19921;-81
2023/01/01 06:55:11;;;;;;;;;;;2.50;87.50;;;1.14;81.42;97714.00;4975374;28;19921;-81
2023/01/01 06:57:39;;;;;;;;;;;2.50;87.40;;;1.15;81.68;97713.00;4976204;28;20210;-81
2023/01/01 07:00:09;;;;;;;;;;;2.50;87.40;;;1.16;81.33;97714.69;4976255;28;19928;-81
2023/01/01 07:02:37;;;;;;;;;;;2.50;87.40;;;1.16;81.71;97725.47;4976198;28;19922;-81
2023/01/01 07:05:05;;;;;;;;;;;2.50;87.50;;;1.15;81.43;97718.38;4991574;28;19928;-81
2023/01/01 07:07:33;;;;;;;;;;;2.50;87.40;;;1.15;81.34;97723.78;4975683;28;19922;-81
2023/01/01 07:10:01;;;;;;;;;;;2.50;87.50;;;1.16;81.40;97725.47;4959788;28;19922;-81
2023/01/01 07:12:30;;;;;;;;;;;2.50;87.40;;;1.16;81.53;97730.84;4975977;28;19922;-81
2023/01/01 07:14:58;;;;;;;;;;;2.50;87.30;;;1.18;81.67;97727.97;4975339;28;19922;-81
2023/01/01 07:17:26;;;;;;;;;;;2.50;87.40;;;1.18;81.50;97723.44;4975908;28;19944;-81
2023/01/01 07:19:54;;;;;;;;;;;2.50;87.30;;;1.19;81.43;97717.03;4959751;28;19922;-81
2023/01/01 07:22:28;;;;;;;;;;;2.50;87.30;;;1.19;81.65;97705.38;4992417;28;19937;-81
2023/01/01 07:24:58;;;;;;;;;;;2.50;87.30;;;1.18;81.57;97709.94;4975431;28;19928;-81
2023/01/01 07:27:32;;;;;;;;;;;2.50;87.30;;;1.21;81.50;97712.31;4959344;28;19921;-80
2023/01/01 07:30:01;;;;;;;;;;;2.60;87.30;;;1.23;81.24;97718.34;4975702;28;19922;-81
2023/01/01 07:32:29;;;;;;;;;;;2.60;87.20;;;1.25;81.30;97722.72;4959488;28;19944;-81
2023/01/01 07:34:56;;;;;;;;;;;2.60;87.10;;;1.26;81.12;97714.47;4958411;28;20242;-81
2023/01/01 07:37:25;;;;;;;;;;;2.60;87.20;;;1.28;81.32;97717.84;4958949;28;19922;-81
2023/01/01 07:39:53;;;;;;;;;;;2.60;87.20;;;1.30;81.34;97710.41;4975385;28;19932;-81
2023/01/01 07:42:20;;;;;;;;;;;2.60;87.10;;;1.32;80.86;97712.94;4975516;28;19944;-80
2023/01/01 07:44:50;;;;;;;;;;;2.70;87.10;;;1.34;81.26;97710.91;4974935;28;20126;-81
2023/01/01 07:47:20;;;;;;;;;;;2.70;87.00;;;1.35;81.35;97710.72;4975464;28;19928;-81
2023/01/01 07:49:48;;;;;;;;;;;2.70;87.00;;;1.37;81.26;97715.94;4992693;28;19921;-81
2023/01/01 07:52:16;;;;;;;;;;;2.70;86.90;;;1.41;81.22;97714.59;4975585;28;19928;-81
2023/01/01 07:54:44;;;;;;;;;;;2.70;86.90;;;1.42;80.68;97718.97;4974685;28;20213;-81
2023/01/01 07:57:12;;;;;;;;;;;2.70;86.80;;;1.45;80.72;97718.63;5001940;28;19921;-81
2023/01/01 07:59:55;;;;;;;;;;;2.80;86.80;;;1.47;81.00;97722.00;4978649;28;19928;-81
2023/01/01 08:02:23;;;;;;;;;;;2.80;86.70;;;1.51;80.63;97728.72;4976148;28;20121;-81
2023/01/01 08:05:04;;;;;;;;;;;2.80;86.60;;;1.53;80.47;97732.06;4972520;28;19928;-81
2023/01/01 08:07:32;;;;;;;;;;;2.90;86.60;;;1.53;80.99;97732.06;4992400;28;19922;-80
2023/01/01 08:10:28;;;;;;;;;;;2.90;86.50;;;1.53;80.40;97737.47;4975062;28;19928;-81
2023/01/01 08:13:00;;;;;;;;;;;2.90;86.50;;;1.53;80.78;97734.78;4975074;28;19921;-81
2023/01/01 08:15:29;;;;;;;;;;;2.90;86.50;;;1.52;80.36;97730.38;4974185;28;19928;-81
2023/01/01 08:17:57;;;;;;;;;;;2.90;86.50;;;1.52;81.05;97741.19;4977752;28;20239;-80
2023/01/01 08:20:25;;;;;;;;;;;2.90;86.40;;;1.52;80.75;97738.50;4978151;28;19930;-81
2023/01/01 08:22:53;;;;;;;;;;;2.90;86.50;;;1.52;80.34;97738.50;4981722;28;19921;-81
2023/01/01 08:25:21;;;;;;;;;;;2.90;86.40;;;1.53;80.35;97739.34;4958447;28;19929;-80
2023/01/01 08:28:02;;;;;;;;;;;2.90;86.50;;;1.53;81.11;97733.94;4975094;28;19937;-80
2023/01/01 08:30:46;;;;;;;;;;;2.90;86.50;;;1.55;81.07;97734.59;4974726;28;19928;-81
2023/01/01 08:33:14;;;;;;;;;;;2.90;86.40;;;1.56;80.80;97747.06;4991805;28;19922;-81
2023/01/01 08:35:42;;;;;;;;;;;2.90;86.40;;;1.57;80.46;97747.94;4974362;28;19921;-81
2023/01/01 08:38:11;;;;;;;;;;;2.90;86.40;;;1.60;80.66;97750.28;4968478;28;19921;-81
2023/01/01 08:40:39;;;;;;;;;;;2.90;86.40;;;1.61;80.51;97744.69;4958585;28;20120;-80
2023/01/01 08:43:10;;;;;;;;;;;2.90;86.40;;;1.65;80.20;97740.66;4958862;28;19929;-81
2023/01/01 08:45:50;;;;;;;;;;;3.00;86.40;;;1.65;80.48;97731.69;4990380;28;19928;-81
2023/01/01 08:48:24;;;;;;;;;;;3.00;86.20;;;1.71;80.74;97733.69;4990381;28;19923;-81
2023/01/01 08:50:55;;;;;;;;;;;3.00;86.20;;;1.76;80.22;97730.47;4975078;28;19922;-81
2023/01/01 08:53:23;;;;;;;;;;;3.10;86.20;;;1.80;80.19;97729.94;4977600;28;19922;-81
2023/01/01 08:55:57;;;;;;;;;;;3.10;86.20;;;1.85;80.55;97726.69;4994606;28;19922;-81
2023/01/01 08:58:25;;;;;;;;;;;3.20;86.00;;;1.91;79.92;97727.84;4977992;28;19922;-81
2023/01/01 09:00:55;;;;;;;;;;;3.20;86.00;;;1.95;80.37;97734.59;4977799;28;19985;-81
2023/01/01 09:03:23;;;;;;;;;;;3.20;85.70;;;1.98;79.90;97729.66;4988921;28;20249;-81
2023/01/01 09:05:51;;;;;;;;;;;3.30;85.70;;;2.01;79.28;97733.84;4996826;28;19921;-81
2023/01/01 09:08:19;;;;;;;;;;;3.30;85.60;;;2.04;79.56;97736.22;5013616;28;20474;-81
2023/01/01 09:10:47;;;;;;;;;;;3.30;85.40;;;2.05;79.23;97728.97;4997364;28;20116;-81
2023/01/01 09:13:16;;;;;;;;;;;3.40;85.20;;;2.07;79.68;97724.19;4996917;28;20112;-81
2023/01/01 09:15:44;;;;;;;;;;;3.40;85.20;;;2.08;79.89;97718.63;4996543;28;19922;-81
2023/01/01 09:18:13;;;;;;;;;;;3.40;85.10;;;2.09;79.24;97717.63;4996769;28;20116;-80
2023/01/01 09:20:41;;;;;;;;;;;3.40;85.20;;;2.10;79.29;97716.59;5014482;28;20264;-81
2023/01/01 09:23:10;;;;;;;;;;;3.40;85.00;;;2.12;79.35;97706.47;4990232;28;19921;-81
2023/01/01 09:25:38;;;;;;;;;;;3.40;84.90;;;2.14;79.59;97706.28;4961042;28;19922;-81
2023/01/01 09:28:06;;;;;;;;;;;3.50;85.10;;;2.14;79.27;97696.28;4999389;28;19922;-81
2023/01/01 09:30:34;;;;;;;;;;;3.50;85.00;;;2.17;79.34;97694.25;4997103;28;19922;-81
2023/01/01 09:33:02;;;;;;;;;;;3.50;84.90;;;2.18;79.56;97685.13;4980757;28;19922;-81
2023/01/01 09:35:31;;;;;;;;;;;3.50;84.90;;;2.18;79.27;97685.13;4996041;28;19921;-81
2023/01/01 09:37:59;;;;;;;;;;;3.50;84.90;;;2.19;79.67;97671.47;4977003;28;20114;-81
2023/01/01 09:40:29;;;;;;;;;;;3.50;84.90;;;2.21;79.63;97673.97;4993698;28;19928;-81
2023/01/01 09:43:04;;;;;;;;;;;3.50;85.00;;;2.22;78.89;97664.84;4961308;28;19928;-81
2023/01/01 09:45:33;;;;;;;;;;;3.50;84.80;;;2.23;79.19;97663.81;4960649;28;20209;-81
2023/01/01 09:48:03;;;;;;;;;;;3.50;84.70;;;2.22;78.69;97660.25;4993524;28;20210;-81
2023/01/01 09:50:35;;;;;;;;;;;3.60;84.60;;;2.24;78.87;97657.41;4977267;28;19928;-81
2023/01/01 09:53:05;;;;;;;;;;;3.60;84.70;;;2.25;79.52;97650.97;4979140;28;19928;-81
2023/01/01 09:55:37;;;;;;;;;;;3.60;84.60;;;2.27;79.08;97651.63;4996088;28;20089;-81
2023/01/01 09:58:05;;;;;;;;;;;3.60;84.80;;;2.26;78.88;97650.78;4979921;28;19922;-81
2023/01/01 10:00:33;;;;;;;;;;;3.60;84.70;;;2.26;78.86;97645.38;4996045;28;19928;-81
2023/01/01 10:03:11;;;;;;;;;;;3.60;84.60;;;2.28;78.76;97642.50;4979681;28;19926;-81
2023/01/01 10:05:48;;;;;;;;;;;3.60;84.50;;;2.28;79.60;97647.91;4993983;28;19921;-81
2023/01/01 10:08:21;;;;;;;;;;;3.60;84.60;;;2.29;78.97;97646.88;4976635;28;19938;-81
2023/01/01 10:10:51;;;;;;;;;;;3.60;84.50;;;2.28;79.39;97643.34;4977010;28;19936;-81
2023/01/01 10:13:22;;;;;;;;;;;3.60;84.50;;;2.29;78.97;97642.31;4976814;28;19921;-81
2023/01/01 10:15:55;;;;;;;;;;;3.60;84.40;;;2.28;78.75;97637.09;4968323;28;19922;-81
2023/01/01 10:18:24;;;;;;;;;;;3.60;84.50;;;2.28;79.24;97632.53;4994110;28;19932;-81
2023/01/01 10:20:58;;;;;;;;;;;3.60;84.50;;;2.29;79.04;97633.38;4995599;28;19921;-81
2023/01/01 10:23:27;;;;;;;;;;;3.60;84.50;;;2.27;79.06;97630.84;4979615;28;19928;-81
2023/01/01 10:25:55;;;;;;;;;;;3.60;84.50;;;2.28;79.27;97631.69;4995727;28;19927;-81
2023/01/01 10:28:25;;;;;;;;;;;3.60;84.50;;;2.26;79.35;97628.34;5012407;28;19922;-81
2023/01/01 10:30:54;;;;;;;;;;;3.60;84.60;;;2.27;78.90;97624.59;4988412;28;19928;-81
2023/01/01 10:33:22;;;;;;;;;;;3.60;84.60;;;2.26;79.12;97631.88;4995645;28;19921;-81
2023/01/01 10:35:50;;;;;;;;;;;3.60;84.60;;;2.25;78.88;97615.84;4987799;28;20224;-82
2023/01/01 10:38:22;;;;;;;;;;;3.60;84.60;;;2.26;79.22;97622.94;4979837;28;20221;-81
2023/01/01 10:40:50;;;;;;;;;;;3.60;84.60;;;2.25;79.52;97626.66;4977478;28;19922;-81
2023/01/01 10:43:18;;;;;;;;;;;3.60;84.60;;;2.26;78.95;97620.25;4992445;28;19928;-81
2023/01/01 10:45:48;;;;;;;;;;;3.60;84.70;;;2.25;79.17;97626.66;4993041;28;19928;-81
2023/01/01 10:48:17;;;;;;;;;;;3.60;84.80;;;2.25;79.23;97615.84;4995587;28;19922;-80
2023/01/01 10:50:48;;;;;;;;;;;3.60;84.70;;;2.24;79.18;97612.28;4995650;28;19921;-81
2023/01/01 10:53:30;;;;;;;;;;;3.60;84.80;;;2.25;79.40;97602.34;4995486;28;20120;-81
2023/01/01 10:56:03;;;;;;;;;;;3.60;84.80;;;2.25;79.68;97605.03;4995441;28;20341;-81
2023/01/01 10:58:35;;;;;;;;;;;3.60;84.80;;;2.25;79.59;97605.03;4995290;28;20217;-80
2023/01/01 11:01:04;;;;;;;;;;;3.60;84.70;;;2.24;79.63;97604.19;5011910;28;19922;-81
2023/01/01 11:03:32;;;;;;;;;;;3.60;84.80;;;2.24;79.25;97609.59;4995094;28;20214;-82
2023/01/01 11:06:05;;;;;;;;;;;3.60;84.90;;;2.24;79.68;97597.97;4995428;28;19922;-81
2023/01/01 11:08:35;;;;;;;;;;;3.60;84.80;;;2.23;79.56;97596.28;4979312;28;19922;-81
2023/01/01 11:11:03;;;;;;;;;;;3.60;84.90;;;2.23;79.28;97593.56;4995307;28;20120;-81
2023/01/01 11:13:31;;;;;;;;;;;3.60;84.90;;;2.23;79.40;97591.69;4994879;28;19922;-81
2023/01/01 11:15:59;;;;;;;;;;;3.60;84.90;;;2.22;79.54;97579.22;4963941;28;19922;-81
2023/01/01 11:18:34;;;;;;;;;;;3.60;84.90;;;2.22;79.80;97579.22;4991988;28;20098;-81
2023/01/01 11:21:03;;;;;;;;;;;3.60;84.90;;;2.22;79.24;97586.50;4992953;28;19922;-81
2023/01/01 11:23:32;;;;;;;;;;;3.60;85.00;;;2.21;79.27;97588.34;4975819;28;19928;-81
2023/01/01 11:26:04;;;;;;;;;;;3.60;85.10;;;2.22;79.29;97583.78;4988656;28;19921;-81
2023/01/01 11:28:33;;;;;;;;;;;3.60;85.10;;;2.20;79.84;97581.25;4995087;28;19928;-81
2023/01/01 11:31:12;;;;;;;;;;;3.50;85.10;;;2.20;79.32;97575.84;4995018;28;20120;-81
2023/01/01 11:33:44;;;;;;;;;;;3.60;85.10;;;2.19;79.68;97570.63;4978576;28;20251;-81
2023/01/01 11:36:12;;;;;;;;;;;3.50;85.20;;;2.19;80.16;97567.94;5012029;28;19928;-81
2023/01/01 11:38:40;;;;;;;;;;;3.50;85.20;;;2.19;79.49;97573.34;4978852;28;19921;-81
2023/01/01 11:41:09;;;;;;;;;;;3.50;85.20;;;2.18;79.96;97568.97;4994722;28;19922;-81
2023/01/01 11:43:39;;;;;;;;;;;3.50;85.30;;;2.17;79.73;97575.38;4994883;28;19921;-81
2023/01/01 11:46:08;;;;;;;;;;;3.50;85.40;;;2.15;79.91;97568.28;5010764;28;20205;-81